createdAt,value
2019-02-09T00:00:51.575Z,8.10
2019-02-09T00:03:21.246Z,8.10
2019-02-09T00:05:50.050Z,8.30
2019-02-09T00:08:19.226Z,8.40
2019-02-09T00:10:48.031Z,8.30
2019-02-09T00:13:16.805Z,8.30
2019-02-09T00:15:45.615Z,8.40
2019-02-09T00:18:14.326Z,8.40
2019-02-09T00:20:43.042Z,8.50
2019-02-09T00:23:13.106Z,8.40
2019-02-09T00:25:41.817Z,8.50
2019-02-09T00:28:10.529Z,8.50
2019-02-09T00:30:39.315Z,8.50
2019-02-09T00:33:08.031Z,8.60
2019-02-09T00:35:36.759Z,8.50
2019-02-09T00:38:05.522Z,8.60
2019-02-09T00:40:34.306Z,8.60
2019-02-09T00:43:03.024Z,8.70
2019-02-09T00:45:31.769Z,8.70
2019-02-09T00:48:00.475Z,8.70
2019-02-09T00:50:29.196Z,8.60
2019-02-09T00:52:57.939Z,8.70
2019-02-09T00:55:26.737Z,8.70
2019-02-09T00:57:55.642Z,8.70
2019-02-09T01:00:24.948Z,8.60
2019-02-09T01:02:53.703Z,8.70
2019-02-09T01:05:25.095Z,8.60
2019-02-09T01:07:55.302Z,8.60
2019-02-09T01:10:24.906Z,8.70
2019-02-09T01:12:53.606Z,8.60
2019-02-09T01:15:23.478Z,8.60
2019-02-09T01:17:52.210Z,8.60
2019-02-09T01:20:22.315Z,8.60
2019-02-09T01:22:51.376Z,8.60
2019-02-09T01:25:20.123Z,8.50
2019-02-09T01:27:48.830Z,8.50
2019-02-09T01:30:19.798Z,8.50
2019-02-09T01:32:51.546Z,8.40
2019-02-09T01:35:20.294Z,8.40
2019-02-09T01:37:49.465Z,8.40
2019-02-09T01:40:22.542Z,8.30
2019-02-09T01:42:51.281Z,8.40
2019-02-09T01:45:28.129Z,8.40
2019-02-09T01:47:56.902Z,8.40
2019-02-09T01:50:26.405Z,8.30
2019-02-09T01:52:55.129Z,8.20
2019-02-09T01:55:24.281Z,8.20
2019-02-09T01:57:53.024Z,8.20
2019-02-09T02:00:23.297Z,8.20
2019-02-09T02:02:52.077Z,8.10
2019-02-09T02:05:21.670Z,8.00
2019-02-09T02:07:50.471Z,8.10
2019-02-09T02:10:22.143Z,8.10
2019-02-09T02:12:50.910Z,8.10
2019-02-09T02:15:22.078Z,8.00
2019-02-09T02:17:50.862Z,8.00
2019-02-09T02:20:21.278Z,8.00
2019-02-09T02:22:50.079Z,8.00
2019-02-09T02:25:18.822Z,8.00
2019-02-09T02:27:47.742Z,8.00
2019-02-09T02:30:24.752Z,8.00
2019-02-09T02:32:53.453Z,8.10
2019-02-09T02:35:23.959Z,8.10
2019-02-09T02:37:52.734Z,8.10
2019-02-09T02:40:23.222Z,8.10
2019-02-09T02:42:51.991Z,8.00
2019-02-09T02:45:20.835Z,8.00
2019-02-09T02:47:49.567Z,8.00
2019-02-09T02:50:18.891Z,8.00
2019-02-09T02:52:47.717Z,8.10
2019-02-09T02:55:18.307Z,8.00
2019-02-09T02:57:47.110Z,8.00
2019-02-09T03:00:18.606Z,8.00
2019-02-09T03:02:47.331Z,8.00
2019-02-09T03:05:17.630Z,8.00
2019-02-09T03:07:46.478Z,8.00
2019-02-09T03:10:15.402Z,8.10
2019-02-09T03:12:44.222Z,8.10
2019-02-09T03:15:15.390Z,8.10
2019-02-09T03:17:44.130Z,8.10
2019-02-09T03:20:14.511Z,8.10
2019-02-09T03:22:43.302Z,8.10
2019-02-09T03:25:14.436Z,8.10
2019-02-09T03:27:43.207Z,8.20
2019-02-09T03:30:13.306Z,8.20
2019-02-09T03:32:41.995Z,8.20
2019-02-09T03:35:11.114Z,8.20
2019-02-09T03:37:39.849Z,8.10
2019-02-09T03:40:11.128Z,8.20
2019-02-09T03:42:39.851Z,8.10
2019-02-09T03:45:12.036Z,8.20
2019-02-09T03:47:40.734Z,8.10
2019-02-09T03:50:10.455Z,8.10
2019-02-09T03:52:39.177Z,8.10
2019-02-09T03:55:07.900Z,8.10
2019-02-09T03:57:36.674Z,8.00
2019-02-09T04:00:09.039Z,8.00
2019-02-09T04:02:37.851Z,8.00
2019-02-09T04:05:06.740Z,7.90
2019-02-09T04:07:35.511Z,7.90
2019-02-09T04:10:05.619Z,7.90
2019-02-09T04:12:34.334Z,7.90
2019-02-09T04:15:03.128Z,7.90
2019-02-09T04:17:31.831Z,7.80
2019-02-09T04:20:01.495Z,7.80
2019-02-09T04:22:30.262Z,7.80
2019-02-09T04:24:58.964Z,7.80
2019-02-09T04:27:27.750Z,7.90
2019-02-09T04:29:56.474Z,7.90
2019-02-09T04:32:28.195Z,8.00
2019-02-09T04:34:56.970Z,8.00
2019-02-09T04:37:25.796Z,8.00
2019-02-09T04:39:55.600Z,7.90
2019-02-09T04:42:24.522Z,7.90
2019-02-09T04:44:54.163Z,8.00
2019-02-09T04:47:24.597Z,7.90
2019-02-09T04:49:53.347Z,7.90
2019-02-09T04:52:22.113Z,7.90
2019-02-09T04:54:50.854Z,7.90
2019-02-09T04:57:19.602Z,7.80
2019-02-09T04:59:48.440Z,7.80
2019-02-09T05:02:17.226Z,7.80
2019-02-09T05:04:45.963Z,7.90
2019-02-09T05:07:14.691Z,7.90
2019-02-09T05:09:43.446Z,7.90
2019-02-09T05:12:12.170Z,7.90
2019-02-09T05:14:40.955Z,7.80
2019-02-09T05:17:09.720Z,7.80
2019-02-09T05:19:38.526Z,7.70
2019-02-09T05:22:07.301Z,7.70
2019-02-09T05:24:36.026Z,7.70
2019-02-09T05:27:04.817Z,7.70
2019-02-09T05:29:33.565Z,7.70
2019-02-09T05:32:02.301Z,7.70
2019-02-09T05:34:31.011Z,7.60
2019-02-09T05:36:59.778Z,7.70
2019-02-09T05:39:28.595Z,7.70
2019-02-09T05:41:57.429Z,7.70
2019-02-09T05:44:26.370Z,7.80
2019-02-09T05:46:55.086Z,7.70
2019-02-09T05:49:23.798Z,7.70
2019-02-09T05:51:52.528Z,7.70
2019-02-09T05:54:21.250Z,7.60
2019-02-09T05:56:50.064Z,7.60
2019-02-09T05:59:18.867Z,7.60
2019-02-09T06:01:47.644Z,7.60
2019-02-09T06:04:16.380Z,7.60
2019-02-09T06:06:45.106Z,7.50
2019-02-09T06:09:13.840Z,7.60
2019-02-09T06:11:42.550Z,7.50
2019-02-09T06:14:11.314Z,7.60
2019-02-09T06:16:40.032Z,7.60
2019-02-09T06:19:08.786Z,7.50
2019-02-09T06:21:37.674Z,7.50
2019-02-09T06:24:06.496Z,7.50
2019-02-09T06:26:35.367Z,7.60
2019-02-09T06:29:04.141Z,7.60
2019-02-09T06:31:40.661Z,7.70
2019-02-09T06:34:03.371Z,7.70
2019-02-09T06:36:32.241Z,7.70
2019-02-09T06:39:00.938Z,7.70
2019-02-09T06:41:29.670Z,7.70
2019-02-09T06:43:58.390Z,7.90
2019-02-09T06:46:27.095Z,7.80
2019-02-09T06:48:55.850Z,7.80
2019-02-09T06:51:24.814Z,7.80
2019-02-09T06:53:53.568Z,7.80
2019-02-09T06:56:22.327Z,7.90
2019-02-09T06:58:51.084Z,7.80
2019-02-09T07:01:19.847Z,7.80
2019-02-09T07:03:48.713Z,7.80
2019-02-09T07:06:17.933Z,7.70
2019-02-09T07:08:47.015Z,7.70
2019-02-09T07:11:15.794Z,7.70
2019-02-09T07:13:44.706Z,7.80
2019-02-09T07:16:18.007Z,7.80
2019-02-09T07:18:47.224Z,7.80
2019-02-09T07:21:16.010Z,7.70
2019-02-09T07:23:45.162Z,7.70
2019-02-09T07:26:14.064Z,7.70
2019-02-09T07:28:42.950Z,7.70
2019-02-09T07:31:12.059Z,7.70
2019-02-09T07:33:41.067Z,7.60
2019-02-09T07:36:09.811Z,7.70
2019-02-09T07:38:38.535Z,7.80
2019-02-09T07:41:07.286Z,7.80
2019-02-09T07:43:36.423Z,7.80
2019-02-09T07:46:05.210Z,7.80
2019-02-09T07:48:35.208Z,7.80
2019-02-09T07:51:23.263Z,7.80
2019-02-09T07:53:52.046Z,7.80
2019-02-09T07:56:20.782Z,7.80
2019-02-09T07:58:49.541Z,7.70
2019-02-09T08:01:20.712Z,7.80
2019-02-09T08:03:50.091Z,7.80
2019-02-09T08:06:18.878Z,7.80
2019-02-09T08:08:48.450Z,7.90
2019-02-09T08:11:17.205Z,8.00
2019-02-09T08:13:46.034Z,8.00
2019-02-09T08:16:14.870Z,8.00
2019-02-09T08:18:43.671Z,8.00
2019-02-09T08:21:12.650Z,8.00
2019-02-09T08:23:41.482Z,8.00
2019-02-09T08:26:12.333Z,8.00
2019-02-09T08:28:41.458Z,8.00
2019-02-09T08:31:11.394Z,8.00
2019-02-09T08:33:40.118Z,8.00
2019-02-09T08:36:08.929Z,8.10
2019-02-09T08:38:37.658Z,8.20
2019-02-09T08:41:06.434Z,8.20
2019-02-09T08:43:35.250Z,8.20
2019-02-09T08:46:04.017Z,8.30
2019-02-09T08:48:36.617Z,8.30
2019-02-09T08:51:08.959Z,8.30
2019-02-09T08:53:37.698Z,8.30
2019-02-09T08:56:06.475Z,8.40
2019-02-09T08:58:37.117Z,8.40
2019-02-09T09:01:05.930Z,8.40
2019-02-09T09:03:34.646Z,8.40
2019-02-09T09:06:03.558Z,8.40
2019-02-09T09:08:32.274Z,8.40
2019-02-09T09:11:01.434Z,8.50
2019-02-09T09:13:36.273Z,8.50
2019-02-09T09:16:09.854Z,8.50
2019-02-09T09:18:38.666Z,8.50
2019-02-09T09:21:07.583Z,8.50
2019-02-09T09:23:36.285Z,8.60
2019-02-09T09:26:05.098Z,8.70
2019-02-09T09:28:33.910Z,8.70
2019-02-09T09:31:02.608Z,8.80
2019-02-09T09:33:31.350Z,8.80
2019-02-09T09:36:00.089Z,8.80
2019-02-09T09:38:29.172Z,8.90
2019-02-09T09:40:57.947Z,9.00
2019-02-09T09:43:26.675Z,9.10
2019-02-09T09:45:55.378Z,9.10
2019-02-09T09:48:24.194Z,9.10
2019-02-09T09:50:53.353Z,9.30
2019-02-09T09:53:22.163Z,9.40
2019-02-09T09:55:50.882Z,9.60
2019-02-09T09:58:19.618Z,9.70
2019-02-09T10:00:48.579Z,9.60
2019-02-09T10:03:17.293Z,9.50
2019-02-09T10:05:46.034Z,9.40
2019-02-09T10:08:14.754Z,9.40
2019-02-09T10:10:43.498Z,9.20
2019-02-09T10:13:12.313Z,9.20
2019-02-09T10:15:41.063Z,9.30
2019-02-09T10:18:09.979Z,9.40
2019-02-09T10:20:38.727Z,9.50
2019-02-09T10:23:07.689Z,9.60
2019-02-09T10:25:36.384Z,9.80
2019-02-09T10:28:05.085Z,9.80
2019-02-09T10:30:34.099Z,10.10
2019-02-09T10:33:02.830Z,10.20
2019-02-09T10:35:31.579Z,10.10
2019-02-09T10:38:00.309Z,10.10
2019-02-09T10:40:30.517Z,10.10
2019-02-09T10:42:59.262Z,10.20
2019-02-09T10:45:28.768Z,10.30
2019-02-09T10:47:57.689Z,10.20
2019-02-09T10:50:31.574Z,10.40
2019-02-09T10:53:00.364Z,10.40
2019-02-09T10:55:29.082Z,10.40
2019-02-09T10:57:57.849Z,10.40
2019-02-09T11:00:44.722Z,10.20
2019-02-09T11:03:13.682Z,10.10
2019-02-09T11:05:42.393Z,10.20
2019-02-09T11:08:11.125Z,10.40
2019-02-09T11:10:40.221Z,10.30
2019-02-09T11:13:09.084Z,10.50
2019-02-09T11:15:37.917Z,10.50
2019-02-09T11:18:07.158Z,10.60
2019-02-09T11:20:35.861Z,10.60
2019-02-09T11:23:04.856Z,10.60
2019-02-09T11:25:33.683Z,10.60
2019-02-09T11:28:02.391Z,10.50
2019-02-09T11:30:31.427Z,10.60
2019-02-09T11:33:02.438Z,10.60
2019-02-09T11:35:30.722Z,10.60
2019-02-09T11:37:59.500Z,10.80
2019-02-09T11:40:28.372Z,10.90
2019-02-09T11:42:57.331Z,10.70
2019-02-09T11:45:27.833Z,10.70
2019-02-09T11:47:56.964Z,10.50
2019-02-09T11:50:25.869Z,10.60
2019-02-09T11:52:55.114Z,10.60
2019-02-09T11:55:23.890Z,10.70
2019-02-09T11:57:52.687Z,10.60
2019-02-09T12:00:29.789Z,10.70
2019-02-09T12:03:03.985Z,10.60
2019-02-09T12:05:29.257Z,10.50
2019-02-09T12:07:58.271Z,10.50
2019-02-09T12:10:27.193Z,10.40
2019-02-09T12:12:56.422Z,10.50
2019-02-09T12:15:27.423Z,10.50
2019-02-09T12:17:56.231Z,10.50
2019-02-09T12:20:25.942Z,10.50
2019-02-09T12:22:54.691Z,10.60
2019-02-09T12:25:25.865Z,10.60
2019-02-09T12:27:54.587Z,10.50
2019-02-09T12:30:25.297Z,10.50
2019-02-09T12:32:54.101Z,10.40
2019-02-09T12:35:22.881Z,10.50
2019-02-09T12:37:51.604Z,10.50
2019-02-09T12:40:22.153Z,10.70
2019-02-09T12:42:50.979Z,10.70
2019-02-09T12:45:20.659Z,10.50
2019-02-09T12:47:49.450Z,10.60
2019-02-09T12:50:18.702Z,10.50
2019-02-09T12:52:47.489Z,10.50
2019-02-09T12:55:16.256Z,10.40
2019-02-09T12:57:45.085Z,10.30
2019-02-09T13:00:22.897Z,10.30
2019-02-09T13:02:51.682Z,10.20
2019-02-09T13:05:20.400Z,10.20
2019-02-09T13:07:49.237Z,10.10
2019-02-09T13:10:17.985Z,10.00
2019-02-09T13:12:46.771Z,10.00
2019-02-09T13:15:18.077Z,10.00
2019-02-09T13:17:46.877Z,10.10
2019-02-09T13:20:17.646Z,10.00
2019-02-09T13:22:46.350Z,10.00
2019-02-09T13:25:15.209Z,10.00
2019-02-09T13:27:43.944Z,10.00
2019-02-09T13:30:21.180Z,10.00
2019-02-09T13:32:50.210Z,10.00
2019-02-09T13:35:18.932Z,10.00
2019-02-09T13:37:47.637Z,9.90
2019-02-09T13:40:17.565Z,9.90
2019-02-09T13:42:46.266Z,9.90
2019-02-09T13:45:18.759Z,10.00
2019-02-09T13:47:47.509Z,9.90
2019-02-09T13:50:16.231Z,9.90
2019-02-09T13:52:44.934Z,9.80
2019-02-09T13:55:14.677Z,9.70
2019-02-09T13:57:43.394Z,9.70
2019-02-09T14:00:15.152Z,9.90
2019-02-09T14:02:43.945Z,9.80
2019-02-09T14:05:12.698Z,9.80
2019-02-09T14:07:41.412Z,10.00
2019-02-09T14:10:11.074Z,9.80
2019-02-09T14:12:39.822Z,9.90
2019-02-09T14:15:11.486Z,9.90
2019-02-09T14:17:40.174Z,9.90
2019-02-09T14:20:10.107Z,9.90
2019-02-09T14:22:38.814Z,9.80
2019-02-09T14:25:07.563Z,9.80
2019-02-09T14:27:36.324Z,9.80
2019-02-09T14:30:07.390Z,9.80
2019-02-09T14:32:36.097Z,9.90
2019-02-09T14:35:05.290Z,10.00
2019-02-09T14:37:34.002Z,10.20
2019-02-09T14:40:02.720Z,10.40
2019-02-09T14:42:32.378Z,10.50
2019-02-09T14:45:01.089Z,10.40
2019-02-09T14:47:29.805Z,10.40
2019-02-09T14:49:59.415Z,10.40
2019-02-09T14:52:28.204Z,10.20
2019-02-09T14:54:56.926Z,10.00
2019-02-09T14:57:25.681Z,10.00
2019-02-09T14:59:54.377Z,9.80
2019-02-09T15:02:23.109Z,9.80
2019-02-09T15:04:51.846Z,9.70
2019-02-09T15:07:20.538Z,9.60
2019-02-09T15:09:49.258Z,9.60
2019-02-09T15:12:17.998Z,9.60
2019-02-09T15:14:46.707Z,9.50
2019-02-09T15:17:15.413Z,9.50
2019-02-09T15:19:44.126Z,9.60
2019-02-09T15:22:12.818Z,9.60
2019-02-09T15:24:41.541Z,9.70
2019-02-09T15:27:10.243Z,9.70
2019-02-09T15:29:38.969Z,9.70
2019-02-09T15:32:07.702Z,9.70
2019-02-09T15:34:36.500Z,9.70
2019-02-09T15:37:05.396Z,9.70
2019-02-09T15:39:34.140Z,9.70
2019-02-09T15:42:02.820Z,9.50
2019-02-09T15:44:31.514Z,9.50
2019-02-09T15:47:00.237Z,9.40
2019-02-09T15:49:28.957Z,9.40
2019-02-09T15:51:57.662Z,9.40
2019-02-09T15:54:27.214Z,9.30
2019-02-09T15:56:56.016Z,9.30
2019-02-09T15:59:25.622Z,9.20
2019-02-09T16:01:54.602Z,9.10
2019-02-09T16:04:23.321Z,9.10
2019-02-09T16:06:52.038Z,9.10
2019-02-09T16:09:20.858Z,9.00
2019-02-09T16:11:49.556Z,9.00
2019-02-09T16:14:18.263Z,9.00
2019-02-09T16:16:46.974Z,9.00
2019-02-09T16:19:15.680Z,9.00
2019-02-09T16:21:44.374Z,8.90
2019-02-09T16:24:13.998Z,9.00
2019-02-09T16:26:42.727Z,9.00
2019-02-09T16:29:11.421Z,9.00
2019-02-09T16:31:40.189Z,9.00
2019-02-09T16:34:08.884Z,9.00
2019-02-09T16:36:37.581Z,9.00
2019-02-09T16:39:08.445Z,9.00
2019-02-09T16:41:37.211Z,9.00
2019-02-09T16:44:06.278Z,9.00
2019-02-09T16:46:35.034Z,9.00
2019-02-09T16:49:03.821Z,8.90
2019-02-09T16:51:32.523Z,8.90
2019-02-09T16:54:01.222Z,8.90
2019-02-09T16:56:29.939Z,8.90
2019-02-09T16:58:58.653Z,8.90
2019-02-09T17:01:27.402Z,8.90
2019-02-09T17:03:56.164Z,8.90
2019-02-09T17:06:24.910Z,8.90
2019-02-09T17:08:53.637Z,8.90
2019-02-09T17:11:22.429Z,8.90
2019-02-09T17:13:51.138Z,8.90
2019-02-09T17:16:19.932Z,8.90
2019-02-09T17:18:48.637Z,9.00
2019-02-09T17:21:17.347Z,8.90
2019-02-09T17:23:47.583Z,8.90
2019-02-09T17:26:16.311Z,8.90
2019-02-09T17:28:44.994Z,8.90
2019-02-09T17:31:13.681Z,8.80
2019-02-09T17:33:42.528Z,8.80
2019-02-09T17:36:11.265Z,8.80
2019-02-09T17:38:39.962Z,8.70
2019-02-09T17:41:08.740Z,8.70
2019-02-09T17:43:37.469Z,8.70
2019-02-09T17:46:10.414Z,8.80
2019-02-09T17:48:39.222Z,8.80
2019-02-09T17:51:07.914Z,8.80
2019-02-09T17:53:36.624Z,8.80
2019-02-09T17:56:05.361Z,8.80
2019-02-09T17:58:34.147Z,8.70
2019-02-09T18:01:10.169Z,8.70
2019-02-09T18:03:38.926Z,8.70
2019-02-09T18:06:07.895Z,8.80
2019-02-09T18:08:36.622Z,8.80
2019-02-09T18:11:13.577Z,8.80
2019-02-09T18:13:42.453Z,8.90
2019-02-09T18:16:11.150Z,8.90
2019-02-09T18:18:39.872Z,8.90
2019-02-09T18:21:08.648Z,8.90
2019-02-09T18:23:37.406Z,8.90
2019-02-09T18:26:06.247Z,9.00
2019-02-09T18:28:35.047Z,9.00
2019-02-09T18:31:03.994Z,9.00
2019-02-09T18:33:32.689Z,9.00
2019-02-09T18:36:01.418Z,9.00
2019-02-09T18:38:30.121Z,9.10
2019-02-09T18:40:58.845Z,9.10
2019-02-09T18:43:28.224Z,9.10
2019-02-09T18:45:58.004Z,9.10
2019-02-09T18:48:26.909Z,9.10
2019-02-09T18:54:20.963Z,9.10
2019-02-09T19:01:27.649Z,9.00
2019-02-09T19:03:27.764Z,9.00
2019-02-09T19:05:56.758Z,9.00
2019-02-09T19:08:31.134Z,8.90
2019-02-09T19:10:59.862Z,8.90
2019-02-09T19:13:28.594Z,8.90
2019-02-09T19:15:58.326Z,8.90
2019-02-09T19:18:27.046Z,8.90
2019-02-09T19:20:58.647Z,8.90
2019-02-09T19:23:27.630Z,8.90
2019-02-09T19:25:57.580Z,8.90
2019-02-09T19:28:26.546Z,8.90
2019-02-09T19:30:55.302Z,8.90
2019-02-09T19:33:24.015Z,8.90
2019-02-09T19:35:52.734Z,8.90
2019-02-09T19:38:21.617Z,8.90
2019-02-09T19:40:50.525Z,8.90
2019-02-09T19:43:19.255Z,8.90
2019-02-09T19:45:47.957Z,9.00
2019-02-09T19:48:16.795Z,9.00
2019-02-09T19:50:45.555Z,8.90
2019-02-09T19:53:14.329Z,8.90
2019-02-09T19:55:43.106Z,8.90
2019-02-09T19:58:11.894Z,8.90
2019-02-09T20:00:42.537Z,8.90
2019-02-09T20:03:11.343Z,8.90
2019-02-09T20:05:40.071Z,8.90
2019-02-09T20:08:10.594Z,8.80
2019-02-09T20:10:39.529Z,8.80
2019-02-09T20:13:09.454Z,8.80
2019-02-09T20:15:38.182Z,8.80
2019-02-09T20:18:07.398Z,8.80
2019-02-09T20:20:36.181Z,8.80
2019-02-09T20:23:04.986Z,8.80
2019-02-09T20:25:33.767Z,8.80
2019-02-09T20:28:02.611Z,8.80
2019-02-09T20:30:33.082Z,8.80
2019-02-09T20:33:01.839Z,8.80
2019-02-09T20:35:30.658Z,8.80
2019-02-09T20:37:59.423Z,8.90
2019-02-09T20:40:40.169Z,8.80
2019-02-09T20:43:10.353Z,8.80
2019-02-09T20:45:39.138Z,8.90
2019-02-09T20:48:07.963Z,8.90
2019-02-09T20:50:36.670Z,8.90
2019-02-09T20:53:05.822Z,8.90
2019-02-09T20:55:34.584Z,8.80
2019-02-09T20:58:03.366Z,8.80
2019-02-09T21:00:32.193Z,8.80
2019-02-09T21:03:00.930Z,8.70
2019-02-09T21:05:36.188Z,8.70
2019-02-09T21:08:00.129Z,8.70
2019-02-09T21:10:29.877Z,8.70
2019-02-09T21:12:58.696Z,8.70
2019-02-09T21:15:27.854Z,8.70
2019-02-09T21:17:56.567Z,8.70
2019-02-09T21:20:25.343Z,8.80
2019-02-09T21:22:54.062Z,8.80
2019-02-09T21:25:28.003Z,8.70
2019-02-09T21:27:56.805Z,8.70
2019-02-09T21:30:25.575Z,8.70
2019-02-09T21:32:55.221Z,8.70
2019-02-09T21:35:23.966Z,8.70
2019-02-09T21:37:52.733Z,8.70
2019-02-09T21:40:22.801Z,8.70
2019-02-09T21:42:51.527Z,8.70
2019-02-09T21:45:20.612Z,8.80
2019-02-09T21:47:49.334Z,8.70
2019-02-09T21:50:20.342Z,8.70
2019-02-09T21:52:49.425Z,8.70
2019-02-09T21:55:18.314Z,8.70
2019-02-09T21:57:47.083Z,8.70
2019-02-09T22:00:22.843Z,8.70
2019-02-09T22:02:51.560Z,8.70
2019-02-09T22:05:20.355Z,8.70
2019-02-09T22:07:49.089Z,8.70
2019-02-09T22:10:19.951Z,8.70
2019-02-09T22:12:48.764Z,8.70
2019-02-09T22:15:18.239Z,8.70
2019-02-09T22:17:46.959Z,8.70
2019-02-09T22:20:16.503Z,8.80
2019-02-09T22:22:45.268Z,8.80
2019-02-09T22:25:16.239Z,8.80
2019-02-09T22:27:45.634Z,8.80
2019-02-09T22:30:16.800Z,8.80
2019-02-09T22:32:45.675Z,8.80
2019-02-09T22:35:14.599Z,8.80
2019-02-09T22:37:43.614Z,8.80
2019-02-09T22:40:15.271Z,8.80
2019-02-09T22:42:44.068Z,8.80
2019-02-09T22:45:13.026Z,8.80
2019-02-09T22:47:41.727Z,8.80
2019-02-09T22:50:19.187Z,8.80
2019-02-09T22:52:44.842Z,8.80
2019-02-09T22:55:14.242Z,8.80
2019-02-09T22:57:42.966Z,8.80
2019-02-09T23:00:32.611Z,8.80
2019-02-09T23:03:01.321Z,8.80
2019-02-09T23:06:07.782Z,8.80
2019-02-09T23:08:33.999Z,8.80
2019-02-09T23:11:02.879Z,8.80
2019-02-09T23:13:31.777Z,8.80
2019-02-09T23:16:00.482Z,8.80
2019-02-09T23:18:29.274Z,8.80
2019-02-09T23:20:58.003Z,8.70
2019-02-09T23:23:26.723Z,8.70
2019-02-09T23:25:55.419Z,8.70
2019-02-09T23:28:25.408Z,8.70
2019-02-09T23:30:54.130Z,8.60
2019-02-09T23:33:23.196Z,8.60
2019-02-09T23:35:53.332Z,8.60
2019-02-09T23:38:22.076Z,8.60
2019-02-09T23:40:50.842Z,8.60
2019-02-09T23:43:19.547Z,8.60
2019-02-09T23:45:48.280Z,8.60
2019-02-09T23:48:16.974Z,8.60
2019-02-09T23:50:45.682Z,8.60
2019-02-09T23:53:14.406Z,8.60
2019-02-09T23:55:43.134Z,8.60
2019-02-09T23:58:11.922Z,8.60
